sensor_id;sensor_type;location;lat;lon;timestamp;temperature;humidity
12827;DHT22;66927;48.812;9.118;2023-12-07T00:01:26;4.30;99.90
12827;DHT22;66927;48.812;9.118;2023-12-07T00:03:51;4.30;99.90
12827;DHT22;66927;48.812;9.118;2023-12-07T00:06:17;4.40;99.90
12827;DHT22;66927;48.812;9.118;2023-12-07T00:08:43;4.40;99.90
12827;DHT22;66927;48.812;9.118;2023-12-07T00:11:08;4.40;99.90
12827;DHT22;66927;48.812;9.118;2023-12-07T00:13:34;4.50;99.90
12827;DHT22;66927;48.812;9.118;2023-12-07T00:15:59;4.30;99.90
12827;DHT22;66927;48.812;9.118;2023-12-07T00:18:25;4.50;99.90
12827;DHT22;66927;48.812;9.118;2023-12-07T00:20:50;4.60;99.90
12827;DHT22;66927;48.812;9.118;2023-12-07T00:23:16;4.60;99.90
12827;DHT22;66927;48.812;9.118;2023-12-07T00:25:42;4.50;99.90
12827;DHT22;66927;48.812;9.118;2023-12-07T00:28:07;4.60;99.90
12827;DHT22;66927;48.812;9.118;2023-12-07T00:30:33;4.60;99.90
12827;DHT22;66927;48.812;9.118;2023-12-07T00:32:59;4.50;99.90
12827;DHT22;66927;48.812;9.118;2023-12-07T00:35:26;4.60;99.90
12827;DHT22;66927;48.812;9.118;2023-12-07T00:37:57;4.70;99.90
12827;DHT22;66927;48.812;9.118;2023-12-07T00:40:23;4.50;99.90
12827;DHT22;66927;48.812;9.118;2023-12-07T00:42:49;4.50;99.90
12827;DHT22;66927;48.812;9.118;2023-12-07T00:45:15;4.40;99.90
12827;DHT22;66927;48.812;9.118;2023-12-07T00:47:40;4.50;99.90
12827;DHT22;66927;48.812;9.118;2023-12-07T00:50:11;4.40;99.90
12827;DHT22;66927;48.812;9.118;2023-12-07T00:52:37;4.30;99.90
12827;DHT22;66927;48.812;9.118;2023-12-07T00:55:03;4.20;99.90
12827;DHT22;66927;48.812;9.118;2023-12-07T00:57:29;4.20;99.90
12827;DHT22;66927;48.812;9.118;2023-12-07T00:59:55;4.30;99.90
12827;DHT22;66927;48.812;9.118;2023-12-07T01:02:21;4.40;99.90
12827;DHT22;66927;48.812;9.118;2023-12-07T01:04:47;4.40;99.90
12827;DHT22;66927;48.812;9.118;2023-12-07T01:07:12;4.20;99.90
12827;DHT22;66927;48.812;9.118;2023-12-07T01:09:38;4.30;99.90
12827;DHT22;66927;48.812;9.118;2023-12-07T01:12:04;4.30;99.90
12827;DHT22;66927;48.812;9.118;2023-12-07T01:14:30;4.20;99.90
12827;DHT22;66927;48.812;9.118;2023-12-07T01:16:55;4.30;99.90
12827;DHT22;66927;48.812;9.118;2023-12-07T01:19:21;4.20;99.90
12827;DHT22;66927;48.812;9.118;2023-12-07T01:21:47;4.30;99.90
12827;DHT22;66927;48.812;9.118;2023-12-07T01:24:12;4.40;99.90
12827;DHT22;66927;48.812;9.118;2023-12-07T01:26:38;4.30;99.90
12827;DHT22;66927;48.812;9.118;2023-12-07T01:29:04;4.50;99.90
12827;DHT22;66927;48.812;9.118;2023-12-07T01:31:30;4.30;99.90
12827;DHT22;66927;48.812;9.118;2023-12-07T01:33:56;4.30;99.90
12827;DHT22;66927;48.812;9.118;2023-12-07T01:36:21;4.20;99.90
12827;DHT22;66927;48.812;9.118;2023-12-07T01:38:47;4.30;99.90
12827;DHT22;66927;48.812;9.118;2023-12-07T01:41:12;4.20;99.90
12827;DHT22;66927;48.812;9.118;2023-12-07T01:43:44;4.30;99.90
12827;DHT22;66927;48.812;9.118;2023-12-07T01:46:10;4.20;99.90
12827;DHT22;66927;48.812;9.118;2023-12-07T01:48:36;4.20;99.90
12827;DHT22;66927;48.812;9.118;2023-12-07T01:51:02;4.20;99.90
12827;DHT22;66927;48.812;9.118;2023-12-07T01:53:29;4.30;99.90
12827;DHT22;66927;48.812;9.118;2023-12-07T01:55:55;4.40;99.90
12827;DHT22;66927;48.812;9.118;2023-12-07T01:58:21;4.40;99.90
12827;DHT22;66927;48.812;9.118;2023-12-07T02:00:48;4.50;99.90
12827;DHT22;66927;48.812;9.118;2023-12-07T02:03:17;4.60;99.90
12827;DHT22;66927;48.812;9.118;2023-12-07T02:05:46;4.30;99.90
12827;DHT22;66927;48.812;9.118;2023-12-07T02:08:12;4.40;99.90
12827;DHT22;66927;48.812;9.118;2023-12-07T02:10:38;4.50;99.90
12827;DHT22;66927;48.812;9.118;2023-12-07T02:13:04;4.40;99.90
12827;DHT22;66927;48.812;9.118;2023-12-07T02:15:30;4.40;99.90
12827;DHT22;66927;48.812;9.118;2023-12-07T02:18:14;4.30;99.90
12827;DHT22;66927;48.812;9.118;2023-12-07T02:20:48;4.40;99.90
12827;DHT22;66927;48.812;9.118;2023-12-07T02:23:17;4.30;99.90
12827;DHT22;66927;48.812;9.118;2023-12-07T02:28:57;4.40;99.90
12827;DHT22;66927;48.812;9.118;2023-12-07T02:31:22;4.40;99.90
12827;DHT22;66927;48.812;9.118;2023-12-07T02:33:48;4.40;99.90
12827;DHT22;66927;48.812;9.118;2023-12-07T02:36:16;4.40;99.90
12827;DHT22;66927;48.812;9.118;2023-12-07T02:38:44;4.50;99.90
12827;DHT22;66927;48.812;9.118;2023-12-07T02:41:12;4.40;99.90
12827;DHT22;66927;48.812;9.118;2023-12-07T02:43:38;4.40;99.90
12827;DHT22;66927;48.812;9.118;2023-12-07T02:46:04;4.30;99.90
12827;DHT22;66927;48.812;9.118;2023-12-07T02:48:29;4.40;99.90
12827;DHT22;66927;48.812;9.118;2023-12-07T02:50:55;4.40;99.90
12827;DHT22;66927;48.812;9.118;2023-12-07T02:53:21;4.40;99.90
12827;DHT22;66927;48.812;9.118;2023-12-07T02:55:47;4.30;99.90
12827;DHT22;66927;48.812;9.118;2023-12-07T02:58:12;4.30;99.90
12827;DHT22;66927;48.812;9.118;2023-12-07T03:00:38;4.30;99.90
12827;DHT22;66927;48.812;9.118;2023-12-07T03:03:03;4.30;99.90
12827;DHT22;66927;48.812;9.118;2023-12-07T03:05:29;4.40;99.90
12827;DHT22;66927;48.812;9.118;2023-12-07T03:07:56;4.50;99.90
12827;DHT22;66927;48.812;9.118;2023-12-07T03:10:22;4.60;99.90
12827;DHT22;66927;48.812;9.118;2023-12-07T03:12:47;4.50;99.90
12827;DHT22;66927;48.812;9.118;2023-12-07T03:15:13;4.50;99.90
12827;DHT22;66927;48.812;9.118;2023-12-07T03:17:39;4.50;99.90
12827;DHT22;66927;48.812;9.118;2023-12-07T03:20:05;4.50;99.90
12827;DHT22;66927;48.812;9.118;2023-12-07T03:22:31;4.40;99.90
12827;DHT22;66927;48.812;9.118;2023-12-07T03:24:56;4.40;99.90
12827;DHT22;66927;48.812;9.118;2023-12-07T03:27:23;4.40;99.90
12827;DHT22;66927;48.812;9.118;2023-12-07T03:29:49;4.40;99.90
12827;DHT22;66927;48.812;9.118;2023-12-07T03:32:16;4.30;99.90
12827;DHT22;66927;48.812;9.118;2023-12-07T03:34:42;4.40;99.90
12827;DHT22;66927;48.812;9.118;2023-12-07T03:37:07;4.30;99.90
12827;DHT22;66927;48.812;9.118;2023-12-07T03:39:33;4.30;99.90
12827;DHT22;66927;48.812;9.118;2023-12-07T03:41:59;4.30;99.90
12827;DHT22;66927;48.812;9.118;2023-12-07T03:44:24;4.30;99.90
12827;DHT22;66927;48.812;9.118;2023-12-07T03:46:52;4.20;99.90
12827;DHT22;66927;48.812;9.118;2023-12-07T03:49:18;4.20;99.90
12827;DHT22;66927;48.812;9.118;2023-12-07T03:51:43;4.20;99.90
12827;DHT22;66927;48.812;9.118;2023-12-07T03:54:09;4.10;99.90
12827;DHT22;66927;48.812;9.118;2023-12-07T03:56:34;4.20;99.90
12827;DHT22;66927;48.812;9.118;2023-12-07T03:59:02;4.10;99.90
12827;DHT22;66927;48.812;9.118;2023-12-07T04:01:28;4.10;99.90
12827;DHT22;66927;48.812;9.118;2023-12-07T04:03:55;4.00;99.90
12827;DHT22;66927;48.812;9.118;2023-12-07T04:06:22;4.00;99.90
12827;DHT22;66927;48.812;9.118;2023-12-07T04:08:48;4.00;99.90
12827;DHT22;66927;48.812;9.118;2023-12-07T04:11:14;3.90;99.90
12827;DHT22;66927;48.812;9.118;2023-12-07T04:13:41;4.10;99.90
12827;DHT22;66927;48.812;9.118;2023-12-07T04:16:07;4.00;99.90
12827;DHT22;66927;48.812;9.118;2023-12-07T04:18:33;3.90;99.90
12827;DHT22;66927;48.812;9.118;2023-12-07T04:20:59;3.80;99.90
12827;DHT22;66927;48.812;9.118;2023-12-07T04:23:25;3.80;99.90
12827;DHT22;66927;48.812;9.118;2023-12-07T04:25:51;3.80;99.90
12827;DHT22;66927;48.812;9.118;2023-12-07T04:28:17;3.80;99.90
12827;DHT22;66927;48.812;9.118;2023-12-07T04:30:42;3.70;99.90
12827;DHT22;66927;48.812;9.118;2023-12-07T04:33:08;3.70;99.90
12827;DHT22;66927;48.812;9.118;2023-12-07T04:35:34;3.70;99.90
12827;DHT22;66927;48.812;9.118;2023-12-07T04:38:00;3.70;99.90
12827;DHT22;66927;48.812;9.118;2023-12-07T04:40:27;3.70;99.90
12827;DHT22;66927;48.812;9.118;2023-12-07T04:42:53;3.70;99.90
12827;DHT22;66927;48.812;9.118;2023-12-07T04:45:18;3.70;99.90
12827;DHT22;66927;48.812;9.118;2023-12-07T04:47:45;3.70;99.90
12827;DHT22;66927;48.812;9.118;2023-12-07T04:50:11;3.80;99.90
12827;DHT22;66927;48.812;9.118;2023-12-07T04:52:36;3.60;99.90
12827;DHT22;66927;48.812;9.118;2023-12-07T04:55:02;3.70;99.90
12827;DHT22;66927;48.812;9.118;2023-12-07T04:57:29;3.60;99.90
12827;DHT22;66927;48.812;9.118;2023-12-07T04:59:54;3.60;99.90
12827;DHT22;66927;48.812;9.118;2023-12-07T05:02:21;3.60;99.90
12827;DHT22;66927;48.812;9.118;2023-12-07T05:04:46;3.60;99.90
12827;DHT22;66927;48.812;9.118;2023-12-07T05:07:14;3.50;99.90
12827;DHT22;66927;48.812;9.118;2023-12-07T05:09:39;3.50;99.90
12827;DHT22;66927;48.812;9.118;2023-12-07T05:12:06;3.70;99.90
12827;DHT22;66927;48.812;9.118;2023-12-07T05:14:32;3.50;99.90
12827;DHT22;66927;48.812;9.118;2023-12-07T05:16:58;3.40;99.90
12827;DHT22;66927;48.812;9.118;2023-12-07T05:19:24;3.70;99.90
12827;DHT22;66927;48.812;9.118;2023-12-07T05:21:53;3.50;99.90
12827;DHT22;66927;48.812;9.118;2023-12-07T05:24:22;3.40;99.90
12827;DHT22;66927;48.812;9.118;2023-12-07T05:26:47;3.40;99.90
12827;DHT22;66927;48.812;9.118;2023-12-07T05:29:15;3.40;99.90
12827;DHT22;66927;48.812;9.118;2023-12-07T05:31:41;3.40;99.90
12827;DHT22;66927;48.812;9.118;2023-12-07T05:34:10;3.40;99.90
12827;DHT22;66927;48.812;9.118;2023-12-07T05:36:37;3.60;99.90
12827;DHT22;66927;48.812;9.118;2023-12-07T05:39:04;3.40;99.90
12827;DHT22;66927;48.812;9.118;2023-12-07T05:41:32;3.40;99.90
12827;DHT22;66927;48.812;9.118;2023-12-07T05:43:58;3.40;99.90
12827;DHT22;66927;48.812;9.118;2023-12-07T05:46:23;3.30;99.90
12827;DHT22;66927;48.812;9.118;2023-12-07T05:48:49;3.40;99.90
12827;DHT22;66927;48.812;9.118;2023-12-07T05:51:18;3.40;99.90
12827;DHT22;66927;48.812;9.118;2023-12-07T05:53:44;3.40;99.90
12827;DHT22;66927;48.812;9.118;2023-12-07T05:56:10;3.40;99.90
12827;DHT22;66927;48.812;9.118;2023-12-07T05:58:37;3.40;99.90
12827;DHT22;66927;48.812;9.118;2023-12-07T06:01:04;3.30;99.90
12827;DHT22;66927;48.812;9.118;2023-12-07T06:03:30;3.30;99.90
12827;DHT22;66927;48.812;9.118;2023-12-07T06:05:58;3.50;99.90
12827;DHT22;66927;48.812;9.118;2023-12-07T06:08:25;3.40;99.90
12827;DHT22;66927;48.812;9.118;2023-12-07T06:10:50;3.30;99.90
12827;DHT22;66927;48.812;9.118;2023-12-07T06:13:16;3.50;99.90
12827;DHT22;66927;48.812;9.118;2023-12-07T06:15:41;3.20;99.90
12827;DHT22;66927;48.812;9.118;2023-12-07T06:18:07;3.20;99.90
12827;DHT22;66927;48.812;9.118;2023-12-07T06:20:33;3.10;99.90
12827;DHT22;66927;48.812;9.118;2023-12-07T06:23:00;3.10;99.90
12827;DHT22;66927;48.812;9.118;2023-12-07T06:25:27;3.10;99.90
12827;DHT22;66927;48.812;9.118;2023-12-07T06:27:53;3.20;99.90
12827;DHT22;66927;48.812;9.118;2023-12-07T06:30:21;3.10;99.90
12827;DHT22;66927;48.812;9.118;2023-12-07T06:32:47;3.20;99.90
12827;DHT22;66927;48.812;9.118;2023-12-07T06:35:13;3.00;99.90
12827;DHT22;66927;48.812;9.118;2023-12-07T06:37:39;3.10;99.90
12827;DHT22;66927;48.812;9.118;2023-12-07T06:40:08;3.10;99.90
12827;DHT22;66927;48.812;9.118;2023-12-07T06:42:36;3.00;99.90
12827;DHT22;66927;48.812;9.118;2023-12-07T06:45:03;3.00;99.90
12827;DHT22;66927;48.812;9.118;2023-12-07T06:47:29;3.00;99.90
12827;DHT22;66927;48.812;9.118;2023-12-07T06:49:55;2.90;99.90
12827;DHT22;66927;48.812;9.118;2023-12-07T06:52:21;3.00;99.90
12827;DHT22;66927;48.812;9.118;2023-12-07T06:54:47;3.00;99.90
12827;DHT22;66927;48.812;9.118;2023-12-07T06:57:14;3.10;99.90
12827;DHT22;66927;48.812;9.118;2023-12-07T06:59:40;3.00;99.90
12827;DHT22;66927;48.812;9.118;2023-12-07T07:02:08;3.10;99.90
12827;DHT22;66927;48.812;9.118;2023-12-07T07:04:34;3.00;99.90
12827;DHT22;66927;48.812;9.118;2023-12-07T07:06:59;2.90;99.90
12827;DHT22;66927;48.812;9.118;2023-12-07T07:09:25;3.00;99.90
12827;DHT22;66927;48.812;9.118;2023-12-07T07:11:51;3.00;99.90
12827;DHT22;66927;48.812;9.118;2023-12-07T07:14:16;3.10;99.90
12827;DHT22;66927;48.812;9.118;2023-12-07T07:16:42;3.10;99.90
12827;DHT22;66927;48.812;9.118;2023-12-07T07:19:10;2.90;99.90
12827;DHT22;66927;48.812;9.118;2023-12-07T07:21:36;3.00;99.90
12827;DHT22;66927;48.812;9.118;2023-12-07T07:24:01;3.00;99.90
12827;DHT22;66927;48.812;9.118;2023-12-07T07:26:27;3.00;99.90
12827;DHT22;66927;48.812;9.118;2023-12-07T07:28:53;3.00;99.90
12827;DHT22;66927;48.812;9.118;2023-12-07T07:31:19;3.00;99.90
12827;DHT22;66927;48.812;9.118;2023-12-07T07:33:45;2.80;99.90
12827;DHT22;66927;48.812;9.118;2023-12-07T07:36:14;2.80;99.90
12827;DHT22;66927;48.812;9.118;2023-12-07T07:38:42;2.90;99.90
12827;DHT22;66927;48.812;9.118;2023-12-07T07:41:10;2.90;99.90
12827;DHT22;66927;48.812;9.118;2023-12-07T07:43:36;2.90;99.90
12827;DHT22;66927;48.812;9.118;2023-12-07T07:46:03;2.90;99.90
12827;DHT22;66927;48.812;9.118;2023-12-07T07:48:29;2.90;99.90
12827;DHT22;66927;48.812;9.118;2023-12-07T07:50:55;3.10;99.90
12827;DHT22;66927;48.812;9.118;2023-12-07T07:53:20;2.90;99.90
12827;DHT22;66927;48.812;9.118;2023-12-07T07:55:46;3.00;99.90
12827;DHT22;66927;48.812;9.118;2023-12-07T07:58:12;3.10;99.90
12827;DHT22;66927;48.812;9.118;2023-12-07T08:00:37;2.90;99.90
12827;DHT22;66927;48.812;9.118;2023-12-07T08:03:03;2.90;99.90
12827;DHT22;66927;48.812;9.118;2023-12-07T08:05:29;2.80;99.90
12827;DHT22;66927;48.812;9.118;2023-12-07T08:07:54;3.00;99.90
12827;DHT22;66927;48.812;9.118;2023-12-07T08:10:20;2.90;99.90
12827;DHT22;66927;48.812;9.118;2023-12-07T08:12:46;2.90;99.90
12827;DHT22;66927;48.812;9.118;2023-12-07T08:15:12;2.80;99.90
12827;DHT22;66927;48.812;9.118;2023-12-07T08:17:42;2.90;99.90
12827;DHT22;66927;48.812;9.118;2023-12-07T08:20:08;2.70;99.90
12827;DHT22;66927;48.812;9.118;2023-12-07T08:22:39;2.70;99.90
12827;DHT22;66927;48.812;9.118;2023-12-07T08:25:06;2.80;99.90
12827;DHT22;66927;48.812;9.118;2023-12-07T08:27:36;2.60;99.90
12827;DHT22;66927;48.812;9.118;2023-12-07T08:30:02;2.60;99.90
12827;DHT22;66927;48.812;9.118;2023-12-07T08:32:28;2.60;99.90
12827;DHT22;66927;48.812;9.118;2023-12-07T08:34:54;2.60;99.90
12827;DHT22;66927;48.812;9.118;2023-12-07T08:37:20;2.60;99.90
12827;DHT22;66927;48.812;9.118;2023-12-07T08:39:46;2.70;99.90
12827;DHT22;66927;48.812;9.118;2023-12-07T08:42:11;2.80;99.90
12827;DHT22;66927;48.812;9.118;2023-12-07T08:44:38;2.90;99.90
12827;DHT22;66927;48.812;9.118;2023-12-07T08:47:04;3.00;99.90
12827;DHT22;66927;48.812;9.118;2023-12-07T08:49:31;2.90;99.90
12827;DHT22;66927;48.812;9.118;2023-12-07T08:51:58;2.90;99.90
12827;DHT22;66927;48.812;9.118;2023-12-07T08:54:23;2.90;99.90
12827;DHT22;66927;48.812;9.118;2023-12-07T08:56:49;2.90;99.90
12827;DHT22;66927;48.812;9.118;2023-12-07T08:59:14;3.00;99.90
12827;DHT22;66927;48.812;9.118;2023-12-07T09:01:43;3.10;99.90
12827;DHT22;66927;48.812;9.118;2023-12-07T09:04:08;3.10;99.90
12827;DHT22;66927;48.812;9.118;2023-12-07T09:06:36;3.10;99.90
12827;DHT22;66927;48.812;9.118;2023-12-07T09:09:03;3.10;99.90
12827;DHT22;66927;48.812;9.118;2023-12-07T09:11:33;3.20;99.90
12827;DHT22;66927;48.812;9.118;2023-12-07T09:13:59;3.20;99.90
12827;DHT22;66927;48.812;9.118;2023-12-07T09:16:26;3.30;99.90
12827;DHT22;66927;48.812;9.118;2023-12-07T09:18:52;3.30;99.90
12827;DHT22;66927;48.812;9.118;2023-12-07T09:21:17;3.50;99.90
12827;DHT22;66927;48.812;9.118;2023-12-07T09:23:45;3.60;99.90
12827;DHT22;66927;48.812;9.118;2023-12-07T09:26:10;3.70;99.90
12827;DHT22;66927;48.812;9.118;2023-12-07T09:28:36;3.70;99.90
12827;DHT22;66927;48.812;9.118;2023-12-07T09:31:01;3.70;99.90
12827;DHT22;66927;48.812;9.118;2023-12-07T09:33:27;3.70;99.90
12827;DHT22;66927;48.812;9.118;2023-12-07T09:35:53;3.80;99.90
12827;DHT22;66927;48.812;9.118;2023-12-07T09:38:19;3.80;99.90
12827;DHT22;66927;48.812;9.118;2023-12-07T09:40:46;3.90;99.90
12827;DHT22;66927;48.812;9.118;2023-12-07T09:43:12;4.10;99.90
12827;DHT22;66927;48.812;9.118;2023-12-07T09:45:38;4.00;99.90
12827;DHT22;66927;48.812;9.118;2023-12-07T09:48:04;4.00;99.90
12827;DHT22;66927;48.812;9.118;2023-12-07T09:50:30;4.10;99.90
12827;DHT22;66927;48.812;9.118;2023-12-07T09:52:58;4.30;99.90
12827;DHT22;66927;48.812;9.118;2023-12-07T09:55:24;4.30;99.90
12827;DHT22;66927;48.812;9.118;2023-12-07T09:57:53;4.30;99.90
12827;DHT22;66927;48.812;9.118;2023-12-07T10:00:22;4.30;99.90
12827;DHT22;66927;48.812;9.118;2023-12-07T10:02:48;4.40;99.90
12827;DHT22;66927;48.812;9.118;2023-12-07T10:05:15;4.40;99.90
12827;DHT22;66927;48.812;9.118;2023-12-07T10:07:47;4.50;99.90
12827;DHT22;66927;48.812;9.118;2023-12-07T10:10:16;4.70;99.90
12827;DHT22;66927;48.812;9.118;2023-12-07T10:12:47;4.80;99.90
12827;DHT22;66927;48.812;9.118;2023-12-07T10:15:14;4.90;99.90
12827;DHT22;66927;48.812;9.118;2023-12-07T10:17:45;5.10;99.90
12827;DHT22;66927;48.812;9.118;2023-12-07T10:20:14;5.10;99.90
12827;DHT22;66927;48.812;9.118;2023-12-07T10:22:40;5.10;99.90
12827;DHT22;66927;48.812;9.118;2023-12-07T10:25:07;5.20;99.90
12827;DHT22;66927;48.812;9.118;2023-12-07T10:27:34;5.20;99.90
12827;DHT22;66927;48.812;9.118;2023-12-07T10:30:00;5.20;99.90
12827;DHT22;66927;48.812;9.118;2023-12-07T10:32:26;5.30;99.90
12827;DHT22;66927;48.812;9.118;2023-12-07T10:34:53;5.20;99.90
12827;DHT22;66927;48.812;9.118;2023-12-07T10:37:18;5.30;99.90
12827;DHT22;66927;48.812;9.118;2023-12-07T10:39:44;5.40;99.90
12827;DHT22;66927;48.812;9.118;2023-12-07T10:42:10;5.60;99.90
12827;DHT22;66927;48.812;9.118;2023-12-07T10:44:41;5.60;99.90
12827;DHT22;66927;48.812;9.118;2023-12-07T10:47:10;5.60;99.90
12827;DHT22;66927;48.812;9.118;2023-12-07T10:49:37;5.80;99.90
12827;DHT22;66927;48.812;9.118;2023-12-07T10:52:07;5.80;99.90
12827;DHT22;66927;48.812;9.118;2023-12-07T10:57:37;5.90;99.90
12827;DHT22;66927;48.812;9.118;2023-12-07T11:00:07;6.00;99.90
12827;DHT22;66927;48.812;9.118;2023-12-07T11:02:34;6.20;99.90
12827;DHT22;66927;48.812;9.118;2023-12-07T11:05:01;6.20;99.90
12827;DHT22;66927;48.812;9.118;2023-12-07T11:07:38;6.40;99.90
12827;DHT22;66927;48.812;9.118;2023-12-07T11:10:28;6.50;99.90
12827;DHT22;66927;48.812;9.118;2023-12-07T11:13:08;6.90;99.90
12827;DHT22;66927;48.812;9.118;2023-12-07T11:15:40;7.20;99.90
12827;DHT22;66927;48.812;9.118;2023-12-07T11:18:06;7.20;99.90
12827;DHT22;66927;48.812;9.118;2023-12-07T11:20:42;7.20;99.90
12827;DHT22;66927;48.812;9.118;2023-12-07T11:23:10;7.20;99.90
12827;DHT22;66927;48.812;9.118;2023-12-07T11:25:36;7.30;99.90
12827;DHT22;66927;48.812;9.118;2023-12-07T11:28:04;7.30;99.90
12827;DHT22;66927;48.812;9.118;2023-12-07T11:30:35;7.30;99.90
12827;DHT22;66927;48.812;9.118;2023-12-07T11:33:04;7.30;99.90
12827;DHT22;66927;48.812;9.118;2023-12-07T11:35:30;7.30;99.90
12827;DHT22;66927;48.812;9.118;2023-12-07T11:38:09;7.30;99.90
12827;DHT22;66927;48.812;9.118;2023-12-07T11:40:41;7.30;99.90
12827;DHT22;66927;48.812;9.118;2023-12-07T11:43:07;7.20;99.90
12827;DHT22;66927;48.812;9.118;2023-12-07T11:45:37;7.20;99.90
12827;DHT22;66927;48.812;9.118;2023-12-07T11:48:11;7.10;99.90
12827;DHT22;66927;48.812;9.118;2023-12-07T11:53:27;7.20;99.90
12827;DHT22;66927;48.812;9.118;2023-12-07T11:55:59;7.20;99.90
12827;DHT22;66927;48.812;9.118;2023-12-07T11:58:29;7.30;99.90
12827;DHT22;66927;48.812;9.118;2023-12-07T12:00:55;7.30;99.70
12827;DHT22;66927;48.812;9.118;2023-12-07T12:03:25;7.30;99.00
12827;DHT22;66927;48.812;9.118;2023-12-07T12:05:51;7.30;99.20
12827;DHT22;66927;48.812;9.118;2023-12-07T12:08:17;7.30;99.50
12827;DHT22;66927;48.812;9.118;2023-12-07T12:10:46;7.30;99.90
12827;DHT22;66927;48.812;9.118;2023-12-07T12:13:12;7.20;99.90
12827;DHT22;66927;48.812;9.118;2023-12-07T12:15:39;7.20;99.90
12827;DHT22;66927;48.812;9.118;2023-12-07T12:18:06;7.10;99.90
12827;DHT22;66927;48.812;9.118;2023-12-07T12:20:32;7.10;99.90
12827;DHT22;66927;48.812;9.118;2023-12-07T12:22:58;7.00;99.90
12827;DHT22;66927;48.812;9.118;2023-12-07T12:25:26;7.00;99.90
12827;DHT22;66927;48.812;9.118;2023-12-07T12:27:55;7.00;99.90
12827;DHT22;66927;48.812;9.118;2023-12-07T12:30:22;7.00;99.90
12827;DHT22;66927;48.812;9.118;2023-12-07T12:32:48;7.00;99.90
12827;DHT22;66927;48.812;9.118;2023-12-07T12:35:15;7.00;99.90
12827;DHT22;66927;48.812;9.118;2023-12-07T12:37:46;7.10;99.90
12827;DHT22;66927;48.812;9.118;2023-12-07T12:40:13;7.10;99.90
12827;DHT22;66927;48.812;9.118;2023-12-07T12:43:00;7.10;99.20
12827;DHT22;66927;48.812;9.118;2023-12-07T12:45:26;7.10;99.10
12827;DHT22;66927;48.812;9.118;2023-12-07T12:47:53;7.00;98.80
12827;DHT22;66927;48.812;9.118;2023-12-07T12:50:39;7.00;98.70
12827;DHT22;66927;48.812;9.118;2023-12-07T12:53:06;7.00;98.00
12827;DHT22;66927;48.812;9.118;2023-12-07T12:55:37;6.90;98.30
12827;DHT22;66927;48.812;9.118;2023-12-07T12:58:05;6.90;98.40
12827;DHT22;66927;48.812;9.118;2023-12-07T13:00:31;6.90;98.40
12827;DHT22;66927;48.812;9.118;2023-12-07T13:03:04;6.80;98.70
12827;DHT22;66927;48.812;9.118;2023-12-07T13:05:30;6.80;98.90
12827;DHT22;66927;48.812;9.118;2023-12-07T13:07:57;6.70;99.00
12827;DHT22;66927;48.812;9.118;2023-12-07T13:10:25;6.70;99.10
12827;DHT22;66927;48.812;9.118;2023-12-07T13:12:50;6.70;99.30
12827;DHT22;66927;48.812;9.118;2023-12-07T13:15:16;6.60;99.50
12827;DHT22;66927;48.812;9.118;2023-12-07T13:17:42;6.50;99.50
12827;DHT22;66927;48.812;9.118;2023-12-07T13:20:10;6.50;99.60
12827;DHT22;66927;48.812;9.118;2023-12-07T13:22:40;6.50;99.70
12827;DHT22;66927;48.812;9.118;2023-12-07T13:25:07;6.50;99.80
12827;DHT22;66927;48.812;9.118;2023-12-07T13:27:34;6.40;99.90
12827;DHT22;66927;48.812;9.118;2023-12-07T13:30:00;6.30;99.90
12827;DHT22;66927;48.812;9.118;2023-12-07T13:32:26;6.30;99.90
12827;DHT22;66927;48.812;9.118;2023-12-07T13:34:51;6.30;99.90
12827;DHT22;66927;48.812;9.118;2023-12-07T13:37:17;6.30;99.90
12827;DHT22;66927;48.812;9.118;2023-12-07T13:39:43;6.30;99.90
12827;DHT22;66927;48.812;9.118;2023-12-07T13:42:09;6.30;99.90
12827;DHT22;66927;48.812;9.118;2023-12-07T13:44:35;6.30;99.90
12827;DHT22;66927;48.812;9.118;2023-12-07T13:47:01;6.30;99.90
12827;DHT22;66927;48.812;9.118;2023-12-07T13:49:27;6.30;99.90
12827;DHT22;66927;48.812;9.118;2023-12-07T13:51:53;6.20;99.90
12827;DHT22;66927;48.812;9.118;2023-12-07T13:54:18;6.20;99.90
12827;DHT22;66927;48.812;9.118;2023-12-07T13:56:44;6.30;99.90
12827;DHT22;66927;48.812;9.118;2023-12-07T13:59:11;6.20;99.90
12827;DHT22;66927;48.812;9.118;2023-12-07T14:01:38;6.20;99.90
12827;DHT22;66927;48.812;9.118;2023-12-07T14:04:06;6.20;99.90
12827;DHT22;66927;48.812;9.118;2023-12-07T14:06:32;6.20;99.90
12827;DHT22;66927;48.812;9.118;2023-12-07T14:09:00;6.20;99.90
12827;DHT22;66927;48.812;9.118;2023-12-07T14:11:26;6.10;99.90
12827;DHT22;66927;48.812;9.118;2023-12-07T14:13:52;6.10;99.90
12827;DHT22;66927;48.812;9.118;2023-12-07T14:16:20;6.10;99.80
12827;DHT22;66927;48.812;9.118;2023-12-07T14:18:46;6.20;99.90
12827;DHT22;66927;48.812;9.118;2023-12-07T14:21:12;6.10;99.80
12827;DHT22;66927;48.812;9.118;2023-12-07T14:23:40;6.10;99.50
12827;DHT22;66927;48.812;9.118;2023-12-07T14:26:06;6.00;99.60
12827;DHT22;66927;48.812;9.118;2023-12-07T14:28:31;6.10;99.80
12827;DHT22;66927;48.812;9.118;2023-12-07T14:30:59;6.10;99.30
12827;DHT22;66927;48.812;9.118;2023-12-07T14:33:25;6.10;99.30
12827;DHT22;66927;48.812;9.118;2023-12-07T14:35:51;6.10;99.30
12827;DHT22;66927;48.812;9.118;2023-12-07T14:38:16;6.10;99.60
12827;DHT22;66927;48.812;9.118;2023-12-07T14:40:43;5.90;99.40
12827;DHT22;66927;48.812;9.118;2023-12-07T14:43:08;5.90;99.30
12827;DHT22;66927;48.812;9.118;2023-12-07T14:45:34;5.80;99.20
12827;DHT22;66927;48.812;9.118;2023-12-07T14:47:59;5.90;99.40
12827;DHT22;66927;48.812;9.118;2023-12-07T14:50:25;5.80;99.20
12827;DHT22;66927;48.812;9.118;2023-12-07T14:52:51;5.80;98.90
12827;DHT22;66927;48.812;9.118;2023-12-07T14:55:16;5.90;98.60
12827;DHT22;66927;48.812;9.118;2023-12-07T14:57:44;5.70;97.30
12827;DHT22;66927;48.812;9.118;2023-12-07T15:00:11;5.80;97.20
12827;DHT22;66927;48.812;9.118;2023-12-07T15:02:36;5.70;97.60
12827;DHT22;66927;48.812;9.118;2023-12-07T15:05:02;5.70;97.40
12827;DHT22;66927;48.812;9.118;2023-12-07T15:07:29;5.70;97.30
12827;DHT22;66927;48.812;9.118;2023-12-07T15:09:55;5.70;97.20
12827;DHT22;66927;48.812;9.118;2023-12-07T15:12:21;5.70;97.00
12827;DHT22;66927;48.812;9.118;2023-12-07T15:14:46;5.70;96.90
12827;DHT22;66927;48.812;9.118;2023-12-07T15:17:12;5.60;96.90
12827;DHT22;66927;48.812;9.118;2023-12-07T15:19:38;5.60;97.10
12827;DHT22;66927;48.812;9.118;2023-12-07T15:22:04;5.60;97.20
12827;DHT22;66927;48.812;9.118;2023-12-07T15:24:30;5.50;97.10
12827;DHT22;66927;48.812;9.118;2023-12-07T15:26:56;5.50;97.50
12827;DHT22;66927;48.812;9.118;2023-12-07T15:29:21;5.60;97.70
12827;DHT22;66927;48.812;9.118;2023-12-07T15:31:47;5.40;98.00
12827;DHT22;66927;48.812;9.118;2023-12-07T15:34:12;5.40;98.00
12827;DHT22;66927;48.812;9.118;2023-12-07T15:36:38;5.50;98.30
12827;DHT22;66927;48.812;9.118;2023-12-07T15:39:04;5.40;98.20
12827;DHT22;66927;48.812;9.118;2023-12-07T15:41:29;5.40;98.40
12827;DHT22;66927;48.812;9.118;2023-12-07T15:43:55;5.30;98.60
12827;DHT22;66927;48.812;9.118;2023-12-07T15:46:21;5.20;98.70
12827;DHT22;66927;48.812;9.118;2023-12-07T15:48:47;5.30;98.70
12827;DHT22;66927;48.812;9.118;2023-12-07T15:51:12;5.20;98.90